Aérodrome :
LOGIN :

S'inscrire | Disclaimer

   EN    FR    IT 

 










Légende :    VFR   VFR Marginal   IFR   IFR Intensif   IFR Très Intensif
Visi : 
Plafond : 
>= 8 km
>= 3000ft
5 à 8 km
1000 à 3000 ft
1500m à 5 km
500 à 1000 ft
800 à 1500m
200 à 500 ft
< 800m
< 200 ft
Symboles :   Orages  Brouillard  Fortes neiges  Fortes précipitations  Vent > 20 kt
SIGMETs :   Divers  Orages  Givrage  Turbulence  Onde Orograph.  Cendres Volcan.






- Altitude de l'aérodrome : 464 ft
- Code IATA : EVX


LFOE - Evreux

DERNIER METAR :
  • 241530Z AUTO 22012KT 9999 BKN010 OVC034 03/01 Q0997 NOSIG

METARs EXPIRÉS :
  • 241500Z AUTO 22011KT 9999 BKN010 OVC015 03/01 Q0997 TEMPO 26015G30KT 1000 SHSN BKN004 BKN010CB
  • 241430Z AUTO 23012KT 9999 BKN009 BKN013 03/02 Q0997 TEMPO 26015G30KT 1000 SHSN BKN004 BKN010CB
  • 241400Z AUTO 22013KT 9999 BKN010 03/01 Q0997 TEMPO 26015G30KT 1000 SHSN BKN004 BKN010CB
  • 241330Z AUTO 21011KT 9999 BKN008 OVC012 02/01 Q0998 TEMPO 26015G30KT 1000 SHSN BKN004 BKN010CB
  • 241300Z AUTO 20012KT 9999 BKN009 OVC014 02/01 Q0998 TEMPO 26015G30KT 1000 SHSN BKN004 BKN010CB

Prévision TAF périmée.



MET'MAP, la Météo Aéronautique d'un coup d'oeil ! - Copyright ORBIFLY Décembre 2007 - Disclaimer

ORBIFLY MET'MAP TEAM :

Programmation & Développement : Alexandra Zaïnal
Sur une idée originale de : Baudouin d'Aumeries
Assistance à la programmation : Marc-Olivier Méhu
Soutien technique & logistique : Manuel Goepfert

Contact : metmap@orbifly.com




SOURCES & CREDITS :

   NOAA